Aeroporto :
LOGIN :

Iscrizione | Disclaimer

   EN    FR    IT 

 










Sommario :    VFR   VFR Marginale   IFR   IFR Intensivo   IFR Molto Intensivo
Visibilità : 
Base nubi : 
>= 8 km
>= 3000ft
5 / 8 km
1000 / 3000 ft
1500m / 5 km
500 / 1000 ft
800 / 1500m
200 / 500 ft
< 800m
< 200 ft
Simboli :   Temporali  Nebbia  Neve Forte  Precipitazioni Forti  Vento > 20 kt
SIGMETs :   Varie  Temporali  Ghiacco  Turbolenza  Onda orograficha  Ceneri Vulcaniche






- Altitudine del aeroporto : 52 ft
- Codice IATA : RNN


EKRN - Bornholm Ronne

ULTIMO METAR :
  • 052220Z AUTO 24017KT 9999 FEW063/// SCT088/// 17/12 Q1004

METARs OBSOLETI :
  • 052150Z AUTO 25019KT 9999 BKN059/// BKN240/// 17/13 Q1004
  • 052120Z AUTO 25018KT 9999 BKN059/// BKN240/// 17/13 Q1004
  • 052050Z AUTO 25016KT 9999 FEW064/// 17/14 Q1004
  • 052020Z AUTO 25016KT 9999 NCD 17/13 Q1004
  • 051950Z AUTO 26018KT 9999 NCD 17/14 Q1004

Previsioni scadute.



MetMap, La meteo Aeronautica in un colpo d'occhio ! - Copyright ORBIFLY Dicembre 2007 - Disclaimer

ORBIFLY MET'MAP TEAM :

Programmazione e sviluppo : Alexandra Zaïnal
Concezione : Baudouin d'Aumeries
Aiuto per la programmazione : Marc-Olivier Méhu
Supporto tecnico e logistico : Manuel Goepfert
Aiuto per la traduzione : Arnaldo La Scala

Contatto : metmap@orbifly.com




FONTI E CREDITI :

   NOAA